Sharpsville, Indiana
Current Conditions -  °F | °C
As of 8:15 PM on Saturday 22 Nov 2014 (Local Time) from KOKK Reporting Station
Overcast Overcast  
Wind Chill: 52°   Ceiling: 3400
Heat Index: 52°   Visibility: 10mi
Dew Point: 43°   Wind: 9mph
Humidity: 71%   Direction: 210°SSW
Pressure: 29.99"   Gusts: NA
Location:  40.38°N, 86.09°W
Report Text: KOKK 230115Z AUTO 21008KT 10SM OVC034 11/06 A2999 RMK AO1
Loading
Personal Weather Stations






























Interactive Weather Map New forecast layout! Learn more

10-Day Weather Forecast

Advertisements
Track Severe Weather on mobile